»·PEaware :: N2MM CZPC-CED5

N2MM :: CZPC-CED5

FLIGHT INFORMATION

Flight Status: Arrived
Operator: Privately registered:
United States
More flights under this callsign
Pilot: Sherman V. (22519)
Aircraft: BEECH AIRCRAFT BARON
(BE58)
More flights by this aircraft type
Origin: CZPC Pincher Creek
Canada
Destination: CED5 Taber
Canada
More flights between these airports :: More routes between these airports
Route:
File this flight plan on PilotEdge
Remarks:
Altitude:
(Current/Filed)
9,500ft
Speed:
(Current/Filed)
160kts
Departed: 29-May-20 08:52 PM
Arrived: 29-May-20 09:24 PM
Distance/Time
Traveled:
73nm/0:32
Distance/Time
To Go:
Arrived

Flight Plot

Page will automatically refresh every two minutes.

Flight plan parsing failed; only flown route is shown


Map Options




Map Legend


Flown Route
Filed Route
Departure Airport
Arrival Airport
Navaid (VOR, NDB)
Fix

Horizontal Profiles

Position Reports

Time Latitude Longitude Heading Altitude Ground
Speed
29-May-20 20:48 49.522306 -113.999910 271 3891ft 0kts
29-May-20 20:49 49.522306 -113.999910 271 3891ft 0kts
29-May-20 20:50 49.521697 -114.000271 186 3893ft 9kts
29-May-20 20:51 49.520869 -113.980342 80 4014ft 118kts
29-May-20 20:52 49.531907 -113.932108 75 5132ft 140kts
29-May-20 20:53 49.541678 -113.877093 77 6475ft 125kts
29-May-20 20:54 49.549006 -113.835564 77 7406ft 126kts
29-May-20 20:55 49.558238 -113.782992 78 8487ft 128kts
29-May-20 20:56 49.567590 -113.729380 78 9486ft 131kts
29-May-20 20:57 49.577082 -113.674904 77 10421ft 133kts
29-May-20 20:58 49.586757 -113.619221 77 11224ft 141kts
29-May-20 20:59 49.598228 -113.552991 76 11269ft 173kts
29-May-20 21:00 49.611020 -113.478769 76 11246ft 182kts
29-May-20 21:01 49.624108 -113.402636 76 11191ft 184kts
29-May-20 21:02 49.637309 -113.325509 76 11176ft 185kts
29-May-20 21:03 49.650416 -113.248527 76 11161ft 185kts
29-May-20 21:04 49.663462 -113.171548 76 11160ft 185kts
29-May-20 21:05 49.676585 -113.093787 76 11066ft 188kts
29-May-20 21:06 49.689628 -113.016176 75 11043ft 186kts
29-May-20 21:07 49.702506 -112.939258 75 11050ft 183kts
29-May-20 21:08 49.715191 -112.863345 75 11051ft 181kts
29-May-20 21:09 49.727649 -112.788260 75 11050ft 179kts
29-May-20 21:10 49.739969 -112.713657 75 11050ft 178kts
29-May-20 21:11 49.752229 -112.639177 74 11051ft 178kts
29-May-20 21:12 49.764831 -112.562120 75 10191ft 188kts
29-May-20 21:13 49.777521 -112.484259 75 9079ft 186kts
29-May-20 21:14 49.790378 -112.404941 75 7675ft 194kts
29-May-20 21:15 49.803526 -112.323462 75 6143ft 196kts
29-May-20 21:16 49.816682 -112.241491 76 4547ft 197kts
29-May-20 21:18 49.823494 -112.167581 132 3084ft 152kts
29-May-20 21:19 49.829343 -112.170649 255 2753ft 98kts
29-May-20 21:20 49.822430 -112.196650 65 2718ft 184kts
29-May-20 21:21 49.825388 -112.170718 130 3077ft 159kts
29-May-20 21:22 49.829614 -112.167831 264 2827ft 102kts
29-May-20 21:23 49.826708 -112.181472 65 2648ft 42kts
29-May-20 21:24 49.826150 -112.176206 244 2642ft 0kts
29-May-20 21:25 49.826150 -112.176206 244 2642ft 0kts
29-May-20 21:26 49.826150 -112.176206 244 2642ft 0kts
29-May-20 21:27 49.826150 -112.176206 244 2642ft 0kts
29-May-20 21:28 49.826150 -112.176206 244 2642ft 0kts
29-May-20 21:29 49.826150 -112.176206 244 2642ft 0kts
29-May-20 21:30 49.826150 -112.176206 244 2642ft 0kts
29-May-20 21:31 49.826150 -112.176206 244 2642ft 0kts
29-May-20 21:32 49.826150 -112.176206 244 2642ft 0kts
29-May-20 21:33 49.826150 -112.176206 244 2642ft 0kts
29-May-20 21:34 49.826150 -112.176206 244 2642ft 0kts
29-May-20 21:35 49.826150 -112.176206 244 2642ft 0kts
29-May-20 21:35 49.826150 -112.176206 244 2642ft 0kts
29-May-20 21:37 49.826150 -112.176206 244 2642ft 0kts
29-May-20 21:38 49.826150 -112.176206 244 2642ft 0kts
29-May-20 21:38 49.826150 -112.176206 244 2642ft 0kts

Navigation Log

Ident Type
Flight plan parsing failed, navigation log unavailable